Petersville, North Carolina
Current Conditions -  °F | °C
As of 12:15 AM on Sunday 21 Dec 2014 (Local Time) from KEXX Reporting Station
Overcast Overcast  
Wind Chill: 39°   Ceiling: 2200
Heat Index: 39°   Visibility: 10mi
Dew Point: 34°   Wind: 0mph
Humidity: 83%   Direction: NA
Pressure: 30.25"   Gusts: NA
Location:  35.7974°N, 80.2541°W
Report Text: KEXX 210515Z AUTO 00000KT 10SM OVC022 04/01 A3025 RMK AO2 T00390013
Loading
Personal Weather Stations






























Interactive Weather Map New forecast layout! Learn more

10-Day Weather Forecast

Advertisements
Track Severe Weather on mobile